createdAt,value
2023-01-30T00:00:06.660Z,645.00
2023-01-30T00:01:06.596Z,644.00
2023-01-30T00:02:06.592Z,643.00
2023-01-30T00:03:06.473Z,642.00
2023-01-30T00:04:06.487Z,643.00
2023-01-30T00:05:06.377Z,646.00
2023-01-30T00:06:06.279Z,647.00
2023-01-30T00:07:06.223Z,646.00
2023-01-30T00:08:06.148Z,646.00
2023-01-30T00:09:06.088Z,646.00
2023-01-30T00:10:06.022Z,644.00
2023-01-30T00:11:06.032Z,643.00
2023-01-30T00:12:05.900Z,642.00
2023-01-30T00:13:05.839Z,644.00
2023-01-30T00:14:06.250Z,646.00
2023-01-30T00:15:05.706Z,644.00
2023-01-30T00:16:05.702Z,644.00
2023-01-30T00:17:05.589Z,645.00
2023-01-30T00:18:05.526Z,647.00
2023-01-30T00:19:05.458Z,647.00
2023-01-30T00:20:05.387Z,646.00
2023-01-30T00:21:05.322Z,645.00
2023-01-30T00:22:05.335Z,644.00
2023-01-30T00:23:05.419Z,642.00
2023-01-30T00:24:05.353Z,643.00
2023-01-30T00:25:05.480Z,641.00
2023-01-30T00:26:05.407Z,638.00
2023-01-30T00:27:05.373Z,637.00
2023-01-30T00:28:05.382Z,636.00
2023-01-30T00:29:05.390Z,636.00
2023-01-30T00:30:05.400Z,636.00
2023-01-30T00:31:05.469Z,639.00
2023-01-30T00:32:05.478Z,639.00
2023-01-30T00:33:05.437Z,639.00
2023-01-30T00:34:05.436Z,638.00
2023-01-30T00:35:05.417Z,639.00
2023-01-30T00:36:05.501Z,636.00
2023-01-30T00:37:08.378Z,632.00
2023-01-30T00:38:05.384Z,631.00
2023-01-30T00:39:05.320Z,628.00
2023-01-30T00:40:05.247Z,627.00
2023-01-30T00:41:05.172Z,627.00
2023-01-30T00:42:05.104Z,628.00
2023-01-30T00:43:05.041Z,628.00
2023-01-30T00:44:05.057Z,630.00
2023-01-30T00:45:04.940Z,627.00
2023-01-30T00:46:04.955Z,626.00
2023-01-30T00:47:04.802Z,625.00
2023-01-30T00:48:04.743Z,625.00
2023-01-30T00:49:04.687Z,627.00
2023-01-30T00:50:04.610Z,628.00
2023-01-30T00:51:05.232Z,628.00
2023-01-30T00:52:04.486Z,628.00
2023-01-30T00:53:04.435Z,629.00
2023-01-30T00:54:04.388Z,630.00
2023-01-30T00:55:04.313Z,629.00
2023-01-30T00:56:04.306Z,627.00
2023-01-30T00:57:04.174Z,626.00
2023-01-30T00:58:04.129Z,625.00
2023-01-30T00:59:04.071Z,625.00
2023-01-30T01:00:04.016Z,626.00
2023-01-30T01:01:03.950Z,627.00
2023-01-30T01:02:04.013Z,628.00
2023-01-30T01:03:03.841Z,625.00
2023-01-30T01:04:03.776Z,624.00
2023-01-30T01:05:03.707Z,622.00
2023-01-30T01:06:03.644Z,622.00
2023-01-30T01:07:03.575Z,621.00
2023-01-30T01:08:03.569Z,622.00
2023-01-30T01:09:03.540Z,623.00
2023-01-30T01:10:03.391Z,623.00
2023-01-30T01:11:03.392Z,620.00
2023-01-30T01:12:03.258Z,620.00
2023-01-30T01:50:02.845Z,604.00
2023-01-30T01:52:02.818Z,604.00
2023-01-30T01:53:02.796Z,606.00
2023-01-30T01:54:02.764Z,607.00
2023-01-30T01:55:02.752Z,607.00
2023-01-30T01:56:02.708Z,606.00
2023-01-30T01:57:02.689Z,606.00
2023-01-30T01:58:02.659Z,605.00
2023-01-30T01:59:02.636Z,602.00
2023-01-30T02:00:02.620Z,600.00
2023-01-30T02:01:02.595Z,599.00
2023-01-30T02:02:02.584Z,599.00
2023-01-30T02:03:02.543Z,597.00
2023-01-30T02:04:02.504Z,601.00
2023-01-30T02:05:02.514Z,600.00
2023-01-30T02:06:02.496Z,600.00
2023-01-30T02:07:02.462Z,599.00
2023-01-30T02:08:02.417Z,600.00
2023-01-30T02:09:02.373Z,599.00
2023-01-30T02:10:02.359Z,598.00
2023-01-30T02:11:02.325Z,597.00
2023-01-30T02:12:02.271Z,597.00
2023-01-30T02:13:02.250Z,597.00
2023-01-30T02:14:02.221Z,598.00
2023-01-30T02:15:02.178Z,598.00
2023-01-30T02:16:02.168Z,601.00
2023-01-30T02:17:02.120Z,599.00
2023-01-30T02:18:02.089Z,599.00
2023-01-30T02:19:02.064Z,599.00
2023-01-30T02:20:02.033Z,598.00
2023-01-30T02:21:01.993Z,599.00
2023-01-30T02:22:01.966Z,598.00
2023-01-30T02:23:01.929Z,598.00
2023-01-30T02:24:01.880Z,599.00
2023-01-30T02:25:01.847Z,597.00
2023-01-30T02:26:01.803Z,597.00
2023-01-30T02:27:01.787Z,594.00
2023-01-30T02:28:01.732Z,593.00
2023-01-30T02:29:01.687Z,593.00
2023-01-30T02:30:01.654Z,595.00
2023-01-30T02:31:01.757Z,598.00
2023-01-30T02:32:01.594Z,597.00
2023-01-30T02:33:01.562Z,596.00
2023-01-30T02:34:01.493Z,595.00
2023-01-30T02:35:01.443Z,596.00
2023-01-30T02:36:01.409Z,594.00
2023-01-30T02:37:01.365Z,591.00
2023-01-30T02:38:01.343Z,591.00
2023-01-30T02:39:01.286Z,591.00
2023-01-30T02:40:01.263Z,591.00
2023-01-30T02:41:01.206Z,590.00
2023-01-30T02:42:01.181Z,586.00
2023-01-30T02:43:01.154Z,586.00
2023-01-30T02:44:01.107Z,588.00
2023-01-30T02:45:01.158Z,589.00
2023-01-30T02:46:01.066Z,589.00
2023-01-30T02:47:01.010Z,587.00
2023-01-30T02:48:00.949Z,585.00
2023-01-30T02:49:00.901Z,587.00
2023-01-30T02:50:00.868Z,587.00
2023-01-30T02:51:00.819Z,586.00
2023-01-30T02:52:00.777Z,590.00
2023-01-30T02:53:00.737Z,590.00
2023-01-30T02:54:00.703Z,590.00
2023-01-30T02:55:00.654Z,589.00
2023-01-30T02:56:00.725Z,589.00
2023-01-30T02:57:00.596Z,586.00
2023-01-30T02:58:00.521Z,584.00
2023-01-30T02:59:00.487Z,583.00
2023-01-30T03:00:00.448Z,583.00
2023-01-30T03:01:00.487Z,581.00
2023-01-30T03:02:00.362Z,580.00
2023-01-30T03:03:00.372Z,580.00
2023-01-30T03:04:00.293Z,581.00
2023-01-30T03:05:00.232Z,581.00
2023-01-30T03:06:00.186Z,580.00
2023-01-30T03:07:00.162Z,581.00
2023-01-30T03:08:00.123Z,582.00
2023-01-30T03:09:00.099Z,583.00
2023-01-30T03:10:00.045Z,580.00
2023-01-30T03:11:00.012Z,582.00
2023-01-30T03:11:59.950Z,581.00
2023-01-30T03:12:59.908Z,578.00
2023-01-30T03:13:59.860Z,578.00
2023-01-30T03:14:59.853Z,580.00
2023-01-30T03:15:59.898Z,580.00
2023-01-30T03:16:59.776Z,579.00
2023-01-30T03:17:59.704Z,580.00
2023-01-30T03:18:59.731Z,580.00
2023-01-30T03:19:59.630Z,578.00
2023-01-30T03:20:59.588Z,580.00
2023-01-30T03:21:59.588Z,580.00
2023-01-30T03:22:59.550Z,579.00
2023-01-30T03:23:59.503Z,578.00
2023-01-30T03:24:59.470Z,577.00
2023-01-30T03:25:59.430Z,577.00
2023-01-30T03:26:59.430Z,577.00
2023-01-30T03:27:59.370Z,577.00
2023-01-30T03:28:59.329Z,575.00
2023-01-30T03:29:59.301Z,575.00
2023-01-30T03:30:59.343Z,575.00
2023-01-30T03:31:59.303Z,576.00
2023-01-30T03:32:59.198Z,575.00
2023-01-30T03:33:59.156Z,576.00
2023-01-30T03:34:59.138Z,575.00
2023-01-30T03:35:59.787Z,571.00
2023-01-30T03:36:59.062Z,571.00
2023-01-30T03:37:59.033Z,572.00
2023-01-30T03:38:59.001Z,571.00
2023-01-30T03:39:58.964Z,571.00
2023-01-30T03:40:58.936Z,570.00
2023-01-30T03:41:58.895Z,571.00
2023-01-30T03:42:58.870Z,571.00
2023-01-30T03:43:59.288Z,571.00
2023-01-30T03:44:58.805Z,570.00
2023-01-30T03:45:58.793Z,567.00
2023-01-30T03:46:58.739Z,565.00
2023-01-30T03:47:58.689Z,562.00
2023-01-30T03:48:58.663Z,561.00
2023-01-30T03:49:58.627Z,563.00
2023-01-30T03:50:58.591Z,563.00
2023-01-30T03:51:58.545Z,563.00
2023-01-30T03:52:58.518Z,564.00
2023-01-30T03:53:58.492Z,564.00
2023-01-30T03:54:58.445Z,564.00
2023-01-30T03:55:58.428Z,563.00
2023-01-30T03:56:58.365Z,566.00
2023-01-30T03:57:58.346Z,568.00
2023-01-30T03:58:58.302Z,569.00
2023-01-30T03:59:58.262Z,569.00
2023-01-30T04:00:58.249Z,569.00
2023-01-30T04:01:58.186Z,567.00
2023-01-30T04:02:58.135Z,566.00
2023-01-30T04:03:58.091Z,565.00
2023-01-30T04:04:58.063Z,564.00
2023-01-30T04:05:58.011Z,563.00
2023-01-30T04:06:58.061Z,563.00
2023-01-30T04:07:57.940Z,565.00
2023-01-30T04:08:58.793Z,566.00
2023-01-30T04:09:57.856Z,567.00
2023-01-30T04:10:57.804Z,566.00
2023-01-30T04:11:57.758Z,564.00
2023-01-30T04:12:57.733Z,566.00
2023-01-30T04:13:57.685Z,566.00
2023-01-30T04:14:57.636Z,563.00
2023-01-30T04:15:57.605Z,561.00
2023-01-30T04:16:57.633Z,562.00
2023-01-30T04:17:57.530Z,562.00
2023-01-30T04:18:57.485Z,564.00
2023-01-30T04:19:57.440Z,563.00
2023-01-30T04:20:57.399Z,562.00
2023-01-30T04:21:57.380Z,563.00
2023-01-30T04:22:57.319Z,562.00
2023-01-30T04:23:57.352Z,562.00
2023-01-30T04:24:57.249Z,562.00
2023-01-30T04:25:57.179Z,558.00
2023-01-30T04:26:57.133Z,560.00
2023-01-30T04:27:57.173Z,559.00
2023-01-30T04:28:57.125Z,560.00
2023-01-30T04:29:57.026Z,560.00
2023-01-30T04:30:57.097Z,558.00
2023-01-30T04:31:56.931Z,558.00
2023-01-30T04:32:56.888Z,558.00
2023-01-30T04:33:56.852Z,559.00
2023-01-30T04:34:56.818Z,558.00
2023-01-30T04:35:56.766Z,559.00
2023-01-30T04:36:57.303Z,559.00
2023-01-30T04:37:56.695Z,559.00
2023-01-30T04:38:57.304Z,561.00
2023-01-30T04:39:56.616Z,560.00
2023-01-30T04:40:56.552Z,562.00
2023-01-30T04:41:56.590Z,562.00
2023-01-30T04:42:57.361Z,562.00
2023-01-30T04:43:56.425Z,561.00
2023-01-30T04:44:56.383Z,560.00
2023-01-30T04:45:56.341Z,558.00
2023-01-30T04:46:56.281Z,557.00
2023-01-30T04:47:56.232Z,559.00
2023-01-30T04:48:56.200Z,561.00
2023-01-30T04:49:56.156Z,561.00
2023-01-30T04:50:56.122Z,561.00
2023-01-30T04:51:56.072Z,560.00
2023-01-30T04:52:56.030Z,560.00
2023-01-30T04:53:56.001Z,558.00
2023-01-30T04:54:55.953Z,558.00
2023-01-30T04:55:55.928Z,559.00
2023-01-30T04:56:55.867Z,557.00
2023-01-30T04:57:55.830Z,557.00
2023-01-30T04:58:55.787Z,559.00
2023-01-30T04:59:55.744Z,560.00
2023-01-30T05:00:55.739Z,560.00
2023-01-30T05:01:55.690Z,563.00
2023-01-30T05:02:55.630Z,562.00
2023-01-30T05:03:55.589Z,561.00
2023-01-30T05:04:55.535Z,561.00
2023-01-30T05:05:55.497Z,561.00
2023-01-30T05:06:55.522Z,562.00
2023-01-30T05:07:55.535Z,561.00
2023-01-30T05:09:55.316Z,559.00
2023-01-30T05:10:55.264Z,560.00
2023-01-30T05:11:55.223Z,559.00
2023-01-30T05:12:55.165Z,563.00
2023-01-30T05:13:55.125Z,562.00
2023-01-30T05:59:53.157Z,536.00
2023-01-30T06:04:52.935Z,534.00
2023-01-30T06:05:52.961Z,534.00
2023-01-30T06:06:52.844Z,534.00
2023-01-30T06:07:52.869Z,534.00
2023-01-30T06:09:52.693Z,535.00
2023-01-30T06:10:52.659Z,536.00
2023-01-30T06:11:53.343Z,533.00
2023-01-30T06:12:52.652Z,531.00
2023-01-30T06:13:52.537Z,530.00
2023-01-30T06:14:52.501Z,532.00
2023-01-30T06:15:52.543Z,531.00
2023-01-30T06:16:53.423Z,530.00
2023-01-30T06:17:52.371Z,527.00
2023-01-30T06:18:52.332Z,527.00
2023-01-30T06:19:52.286Z,528.00
2023-01-30T06:20:52.251Z,526.00
2023-01-30T06:21:52.244Z,530.00
2023-01-30T06:22:52.185Z,533.00
2023-01-30T06:23:52.155Z,544.00
2023-01-30T06:24:52.144Z,553.00
2023-01-30T06:25:52.186Z,566.00
2023-01-30T06:26:52.192Z,574.00
2023-01-30T06:27:52.050Z,582.00
2023-01-30T06:28:52.037Z,583.00
2023-01-30T06:29:51.972Z,581.00
2023-01-30T06:30:52.025Z,581.00
2023-01-30T06:31:51.903Z,581.00
2023-01-30T06:32:52.842Z,582.00
2023-01-30T06:33:51.853Z,582.00
2023-01-30T06:34:51.779Z,581.00
2023-01-30T06:36:51.715Z,585.00
2023-01-30T06:37:51.663Z,584.00
2023-01-30T06:38:51.613Z,580.00
2023-01-30T06:39:51.579Z,576.00
2023-01-30T06:40:51.528Z,579.00
2023-01-30T06:41:51.487Z,581.00
2023-01-30T06:42:51.454Z,582.00
2023-01-30T06:43:51.413Z,583.00
2023-01-30T06:44:51.349Z,581.00
2023-01-30T06:45:51.311Z,580.00
2023-01-30T06:46:51.268Z,578.00
2023-01-30T06:47:51.298Z,578.00
2023-01-30T06:48:51.176Z,578.00
2023-01-30T06:49:51.138Z,577.00
2023-01-30T06:50:51.124Z,576.00
2023-01-30T06:57:53.347Z,576.00
2023-01-30T09:44:43.145Z,2693.00
2023-01-30T09:45:43.073Z,2713.00
2023-01-30T09:46:43.001Z,2733.00
2023-01-30T09:47:42.917Z,2763.00
2023-01-30T09:48:42.941Z,2786.00
2023-01-30T09:49:42.792Z,2812.00
2023-01-30T09:50:42.706Z,2833.00
2023-01-30T09:51:42.647Z,2858.00
2023-01-30T09:52:42.571Z,2879.00
2023-01-30T09:53:42.508Z,2912.00
2023-01-30T09:54:42.501Z,2937.00
2023-01-30T09:55:42.405Z,2966.00
2023-01-30T09:56:42.279Z,2998.00
2023-01-30T09:57:42.209Z,3056.00
2023-01-30T09:58:42.143Z,3082.00
2023-01-30T09:59:42.050Z,3105.00
2023-01-30T10:00:41.984Z,3137.00
2023-01-30T10:01:41.898Z,3181.00
2023-01-30T10:02:41.838Z,3215.00
2023-01-30T10:03:41.830Z,3290.00
2023-01-30T10:04:51.713Z,3302.00
2023-01-30T10:05:42.622Z,3318.00
2023-01-30T10:06:41.556Z,3401.00
2023-01-30T10:07:41.493Z,3423.00
2023-01-30T10:08:41.386Z,3424.00
2023-01-30T10:09:41.315Z,3435.00
2023-01-30T10:10:41.229Z,3460.00
2023-01-30T10:11:41.136Z,3481.00
2023-01-30T11:23:37.436Z,3265.00
2023-01-30T11:24:37.536Z,3263.00
2023-01-30T11:25:37.354Z,3258.00
2023-01-30T11:26:46.770Z,3243.00
2023-01-30T11:27:38.151Z,3231.00
2023-01-30T11:28:37.053Z,3222.00
2023-01-30T11:29:36.969Z,3216.00
2023-01-30T11:30:36.900Z,3206.00
2023-01-30T11:31:41.604Z,3201.00
2023-01-30T11:32:37.756Z,3196.00
2023-01-30T11:33:36.637Z,3191.00
2023-01-30T11:34:36.545Z,3191.00
2023-01-30T11:35:36.462Z,3187.00
2023-01-30T11:36:36.380Z,3176.00
2023-01-30T11:37:36.287Z,3170.00
2023-01-30T11:38:36.203Z,3166.00
2023-01-30T11:39:36.122Z,3164.00
2023-01-30T11:40:36.039Z,3160.00
2023-01-30T11:41:35.961Z,3153.00
2023-01-30T11:42:35.876Z,3150.00
2023-01-30T11:43:35.781Z,3149.00
2023-01-30T11:44:35.734Z,3148.00
2023-01-30T11:45:35.616Z,3148.00
2023-01-30T11:46:35.515Z,3147.00
2023-01-30T11:47:35.658Z,3140.00
2023-01-30T11:49:04.123Z,3135.00
2023-01-30T11:49:49.566Z,3130.00
2023-01-30T11:50:36.413Z,3121.00
2023-01-30T11:51:35.048Z,3113.00
2023-01-30T11:52:34.952Z,3110.00
2023-01-30T11:53:34.862Z,3106.00
2023-01-30T11:54:34.758Z,3090.00
2023-01-30T11:55:34.670Z,3086.00
2023-01-30T11:56:34.582Z,3078.00
2023-01-30T11:57:34.546Z,3078.00
2023-01-30T11:58:34.517Z,3073.00
2023-01-30T11:59:34.483Z,3067.00
2023-01-30T12:00:34.468Z,3064.00
2023-01-30T12:01:34.469Z,3064.00
2023-01-30T12:02:34.533Z,3058.00
2023-01-30T12:04:34.372Z,3049.00
2023-01-30T12:05:34.423Z,3038.00
2023-01-30T12:06:34.339Z,3029.00
2023-01-30T12:07:34.302Z,3021.00
2023-01-30T12:08:41.926Z,3020.00
2023-01-30T12:09:35.175Z,3020.00
2023-01-30T12:10:34.090Z,3019.00
2023-01-30T12:11:33.988Z,3013.00
2023-01-30T12:12:33.927Z,3007.00
2023-01-30T12:13:33.806Z,2999.00
2023-01-30T12:14:34.445Z,2991.00
2023-01-30T12:15:33.613Z,2982.00
2023-01-30T12:16:33.593Z,2975.00
2023-01-30T12:17:33.498Z,2968.00
2023-01-30T12:18:33.403Z,2963.00
2023-01-30T12:19:33.288Z,2954.00
2023-01-30T12:20:33.948Z,2949.00
2023-01-30T12:21:33.257Z,2941.00
2023-01-30T12:22:33.159Z,2933.00
2023-01-30T12:23:33.119Z,2929.00
2023-01-30T12:24:33.168Z,2918.00
2023-01-30T12:25:33.025Z,2911.00
2023-01-30T12:26:33.030Z,2906.00
2023-01-30T12:27:32.962Z,2896.00
2023-01-30T12:28:32.927Z,2888.00
2023-01-30T12:29:32.886Z,2878.00
2023-01-30T12:30:32.971Z,2874.00
2023-01-30T12:31:32.830Z,2868.00
2023-01-30T12:33:32.797Z,2850.00
2023-01-30T12:34:32.706Z,2840.00
2023-01-30T12:35:32.690Z,2833.00
2023-01-30T12:36:32.968Z,2828.00
2023-01-30T12:37:32.611Z,2817.00
2023-01-30T12:38:32.570Z,2813.00
2023-01-30T12:39:32.534Z,2812.00
2023-01-30T12:40:32.487Z,2807.00
2023-01-30T12:41:32.461Z,2801.00
2023-01-30T12:42:32.395Z,2798.00
2023-01-30T12:43:32.959Z,2797.00
2023-01-30T12:44:32.309Z,2791.00
2023-01-30T12:45:32.271Z,2782.00
2023-01-30T12:46:32.299Z,2780.00
2023-01-30T12:47:32.341Z,2778.00
2023-01-30T12:48:34.199Z,2779.00
2023-01-30T12:49:33.033Z,2779.00
2023-01-30T12:50:31.929Z,2772.00
2023-01-30T12:51:31.821Z,2772.00
2023-01-30T12:52:31.757Z,2768.00
2023-01-30T12:53:31.640Z,2766.00
2023-01-30T12:54:31.524Z,2763.00
2023-01-30T13:42:27.311Z,2554.00
2023-01-30T13:43:27.239Z,2551.00
2023-01-30T13:44:27.179Z,2549.00
2023-01-30T13:45:27.128Z,2545.00
2023-01-30T13:47:26.983Z,2535.00
2023-01-30T13:48:26.924Z,2527.00
2023-01-30T13:49:26.917Z,2521.00
2023-01-30T13:50:26.827Z,2513.00
2023-01-30T13:51:26.783Z,2509.00
2023-01-30T13:52:26.757Z,2505.00
2023-01-30T13:53:26.696Z,2500.00
2023-01-30T13:54:26.659Z,2491.00
2023-01-30T13:55:26.668Z,2480.00
2023-01-30T13:56:40.907Z,2472.00
2023-01-30T13:58:26.410Z,2463.00
2023-01-30T13:59:26.328Z,2456.00
2023-01-30T14:00:27.023Z,2451.00
2023-01-30T14:02:26.112Z,2447.00
2023-01-30T14:03:25.961Z,2443.00
2023-01-30T14:04:25.867Z,2440.00
2023-01-30T14:05:34.610Z,2436.00
2023-01-30T14:06:26.685Z,2428.00
2023-01-30T14:07:25.693Z,2425.00
2023-01-30T14:08:25.546Z,2418.00
2023-01-30T14:09:25.429Z,2418.00
2023-01-30T14:10:25.384Z,2416.00
2023-01-30T14:11:25.238Z,2411.00
2023-01-30T14:12:25.168Z,2406.00
2023-01-30T14:13:26.004Z,2402.00
2023-01-30T14:14:25.484Z,2401.00
2023-01-30T14:15:24.915Z,2401.00
2023-01-30T14:16:24.858Z,2394.00
2023-01-30T14:17:24.728Z,2387.00
2023-01-30T14:18:24.627Z,2381.00
2023-01-30T14:19:24.534Z,2378.00
2023-01-30T14:20:24.994Z,2375.00
2023-01-30T14:21:24.442Z,2372.00
2023-01-30T14:22:24.279Z,2370.00
2023-01-30T14:23:24.186Z,2359.00
2023-01-30T14:24:24.083Z,2348.00
2023-01-30T14:26:23.943Z,2338.00
2023-01-30T14:48:22.262Z,2271.00
2023-01-30T14:55:22.082Z,2269.00
2023-01-30T14:56:22.016Z,2264.00
2023-01-30T14:57:22.002Z,2258.00
2023-01-30T14:58:21.996Z,2255.00
2023-01-30T15:00:21.946Z,2250.00
2023-01-30T15:01:22.003Z,2246.00
2023-01-30T15:02:21.977Z,2240.00
2023-01-30T15:03:21.911Z,2235.00
2023-01-30T15:04:21.891Z,2236.00
2023-01-30T15:05:21.927Z,2227.00
2023-01-30T15:07:21.835Z,2222.00
2023-01-30T15:08:22.448Z,2223.00
2023-01-30T15:09:21.839Z,2224.00
2023-01-30T15:10:21.778Z,2222.00
2023-01-30T15:11:21.677Z,2217.00
2023-01-30T15:12:21.619Z,2212.00
2023-01-30T15:13:21.519Z,2210.00
2023-01-30T15:14:21.468Z,2206.00
2023-01-30T17:17:15.620Z,1935.00
2023-01-30T17:18:15.567Z,1939.00
2023-01-30T17:19:15.519Z,1937.00
2023-01-30T17:20:15.512Z,1931.00
2023-01-30T18:30:17.196Z,1821.00
2023-01-30T18:31:14.775Z,1823.00
2023-01-30T18:32:14.547Z,1823.00
2023-01-30T18:33:14.476Z,1822.00
2023-01-30T18:34:14.391Z,1824.00
2023-01-30T18:35:14.328Z,1823.00
2023-01-30T18:36:14.265Z,1822.00
2023-01-30T18:37:14.174Z,1821.00
2023-01-30T18:38:14.109Z,1818.00
2023-01-30T18:39:14.024Z,1818.00
2023-01-30T18:40:14.087Z,1813.00
2023-01-30T18:41:13.914Z,1810.00
2023-01-30T18:42:13.809Z,1802.00
2023-01-30T18:43:13.733Z,1799.00
2023-01-30T18:44:13.670Z,1799.00
2023-01-30T18:45:13.687Z,1800.00
2023-01-30T18:46:13.561Z,1799.00
2023-01-30T18:47:13.447Z,1800.00
2023-01-30T18:48:13.388Z,1801.00
2023-01-30T18:49:13.315Z,1797.00
2023-01-30T18:50:13.259Z,1793.00
2023-01-30T18:51:14.083Z,1790.00
2023-01-30T18:52:13.115Z,1791.00
2023-01-30T18:53:13.057Z,1795.00
2023-01-30T18:54:12.980Z,1798.00
2023-01-30T18:55:12.908Z,1796.00
2023-01-30T18:56:12.837Z,1794.00
2023-01-30T18:57:12.766Z,1792.00
2023-01-30T18:58:12.745Z,1792.00
2023-01-30T18:59:12.608Z,1789.00
2023-01-30T19:00:12.556Z,1789.00
2023-01-30T19:01:12.493Z,1784.00
2023-01-30T19:02:12.510Z,1783.00
2023-01-30T19:03:13.076Z,1781.00
2023-01-30T19:04:12.271Z,1779.00
2023-01-30T19:05:12.197Z,1779.00
2023-01-30T19:06:12.132Z,1777.00
2023-01-30T19:07:12.135Z,1778.00
2023-01-30T19:08:12.126Z,1777.00
2023-01-30T19:09:12.155Z,1777.00
2023-01-30T19:10:12.130Z,1776.00
2023-01-30T19:11:12.124Z,1778.00
2023-01-30T19:12:12.137Z,1778.00
2023-01-30T19:13:13.101Z,1778.00
2023-01-30T19:14:12.100Z,1771.00
2023-01-30T19:15:12.150Z,1770.00
2023-01-30T19:16:12.173Z,1767.00
2023-01-30T19:17:12.113Z,1767.00
2023-01-30T19:18:12.016Z,1765.00
2023-01-30T19:19:11.985Z,1763.00
2023-01-30T19:20:12.006Z,1762.00
2023-01-30T19:21:11.954Z,1761.00
2023-01-30T19:22:11.984Z,1761.00
2023-01-30T19:23:11.938Z,1756.00
2023-01-30T19:24:12.099Z,1754.00
2023-01-30T19:25:11.858Z,1752.00
2023-01-30T19:26:11.883Z,1751.00
2023-01-30T19:27:11.788Z,1754.00
2023-01-30T19:28:11.783Z,1754.00
2023-01-30T19:29:11.771Z,1756.00
2023-01-30T19:30:11.693Z,1758.00
2023-01-30T19:31:11.685Z,1756.00
2023-01-30T19:32:11.608Z,1755.00
2023-01-30T19:33:11.551Z,1755.00
2023-01-30T19:34:11.511Z,1753.00
2023-01-30T19:35:11.440Z,1753.00
2023-01-30T19:36:11.384Z,1749.00
2023-01-30T19:37:11.348Z,1750.00
2023-01-30T19:38:11.273Z,1749.00
2023-01-30T19:39:11.223Z,1748.00
2023-01-30T19:40:11.178Z,1745.00
2023-01-30T19:41:11.179Z,1740.00
2023-01-30T19:42:11.066Z,1737.00
2023-01-30T19:43:11.321Z,1739.00
2023-01-30T19:44:10.999Z,1739.00
2023-01-30T19:45:10.951Z,1741.00
2023-01-30T19:46:11.029Z,1738.00
2023-01-30T19:47:10.869Z,1740.00
2023-01-30T19:48:10.815Z,1745.00
2023-01-30T19:49:10.761Z,1743.00
2023-01-30T19:50:10.819Z,1736.00
2023-01-30T19:51:10.672Z,1731.00
2023-01-30T19:52:10.633Z,1728.00
2023-01-30T19:53:10.567Z,1730.00
2023-01-30T19:54:10.534Z,1728.00
2023-01-30T19:55:10.430Z,1726.00
2023-01-30T19:56:10.362Z,1727.00
2023-01-30T19:57:10.302Z,1723.00
2023-01-30T19:58:10.238Z,1722.00
2023-01-30T19:59:10.169Z,1721.00
2023-01-30T20:00:10.084Z,1718.00
2023-01-30T20:01:10.058Z,1719.00
2023-01-30T20:02:09.969Z,1719.00
2023-01-30T20:03:09.966Z,1715.00
2023-01-30T20:04:09.863Z,1707.00
2023-01-30T20:05:09.782Z,1708.00
2023-01-30T20:06:12.076Z,1706.00
2023-01-30T20:07:09.639Z,1708.00
2023-01-30T20:08:10.997Z,1706.00
2023-01-30T20:09:10.488Z,1704.00
2023-01-30T20:10:09.428Z,1701.00
2023-01-30T20:11:09.359Z,1702.00
2023-01-30T20:12:09.301Z,1699.00
2023-01-30T20:13:09.218Z,1697.00
2023-01-30T20:14:09.139Z,1699.00
2023-01-30T20:15:09.071Z,1700.00
2023-01-30T20:16:09.047Z,1701.00
2023-01-30T20:17:08.946Z,1704.00
2023-01-30T20:18:08.933Z,1704.00
2023-01-30T20:19:08.809Z,1702.00
2023-01-30T20:20:08.733Z,1707.00
2023-01-30T20:21:08.651Z,1704.00
2023-01-30T20:22:08.620Z,1701.00
2023-01-30T20:23:08.510Z,1695.00
2023-01-30T20:24:08.431Z,1693.00
2023-01-30T20:25:08.381Z,1689.00
2023-01-30T20:26:08.297Z,1687.00
2023-01-30T20:27:08.226Z,1687.00
2023-01-30T20:28:08.220Z,1687.00
2023-01-30T20:29:08.082Z,1687.00
2023-01-30T20:30:08.021Z,1689.00
2023-01-30T20:31:08.133Z,1692.00
2023-01-30T20:32:08.115Z,1692.00
2023-01-30T20:33:07.799Z,1693.00
2023-01-30T20:34:07.728Z,1691.00
2023-01-30T20:35:07.647Z,1688.00
2023-01-30T20:36:07.584Z,1684.00
2023-01-30T20:37:07.500Z,1681.00
2023-01-30T20:38:07.579Z,1683.00
2023-01-30T20:39:07.713Z,1681.00
2023-01-30T20:40:07.280Z,1677.00
2023-01-30T20:41:07.211Z,1678.00
2023-01-30T20:42:07.152Z,1673.00
2023-01-30T20:43:07.061Z,1673.00
2023-01-30T20:44:06.993Z,1674.00
2023-01-30T20:45:06.928Z,1674.00
2023-01-30T20:46:06.841Z,1674.00
2023-01-30T20:47:06.894Z,1672.00
2023-01-30T20:48:06.718Z,1675.00
2023-01-30T20:49:06.641Z,1675.00
2023-01-30T20:50:06.561Z,1676.00
2023-01-30T20:51:06.502Z,1675.00
2023-01-30T21:33:03.721Z,1642.00
2023-01-30T21:34:03.673Z,1640.00
2023-01-30T21:35:03.609Z,1637.00
2023-01-30T21:36:03.563Z,1634.00
2023-01-30T21:37:03.556Z,1635.00
2023-01-30T21:38:03.432Z,1635.00
2023-01-30T21:39:03.372Z,1632.00
2023-01-30T21:40:03.304Z,1629.00
2023-01-30T21:41:03.254Z,1626.00
2023-01-30T21:42:03.219Z,1624.00
2023-01-30T21:43:03.140Z,1627.00
2023-01-30T21:44:03.085Z,1627.00
2023-01-30T21:45:03.040Z,1626.00
2023-01-30T21:46:03.035Z,1626.00
2023-01-30T21:47:02.901Z,1624.00
2023-01-30T21:48:02.857Z,1625.00
2023-01-30T21:49:02.806Z,1623.00
2023-01-30T21:50:02.749Z,1623.00
2023-01-30T21:51:02.678Z,1620.00
2023-01-30T21:52:02.612Z,1620.00
2023-01-30T21:53:02.543Z,1620.00
2023-01-30T21:54:02.496Z,1619.00
2023-01-30T21:55:02.447Z,1616.00
2023-01-30T21:56:02.399Z,1615.00
2023-01-30T21:57:02.334Z,1615.00
2023-01-30T21:58:02.263Z,1615.00
2023-01-30T21:59:02.211Z,1615.00
2023-01-30T22:00:02.174Z,1614.00
2023-01-30T22:01:02.146Z,1613.00
2023-01-30T22:02:02.043Z,1606.00
2023-01-30T22:03:01.986Z,1606.00
2023-01-30T22:04:01.926Z,1604.00
2023-01-30T22:05:01.883Z,1605.00
2023-01-30T22:06:02.161Z,1604.00
2023-01-30T22:07:01.769Z,1603.00
2023-01-30T22:08:01.705Z,1603.00
2023-01-30T22:09:01.647Z,1601.00
2023-01-30T22:10:01.600Z,1600.00
2023-01-30T22:11:01.594Z,1599.00
2023-01-30T22:12:01.501Z,1600.00
2023-01-30T22:15:01.649Z,1599.00
2023-01-30T23:32:57.219Z,1514.00
2023-01-30T23:33:57.166Z,1515.00
2023-01-30T23:34:57.110Z,1517.00
2023-01-30T23:35:57.063Z,1516.00
2023-01-30T23:36:57.006Z,1516.00
2023-01-30T23:37:56.963Z,1514.00
2023-01-30T23:38:56.910Z,1515.00
2023-01-30T23:40:56.825Z,1511.00
2023-01-30T23:41:56.755Z,1512.00
2023-01-30T23:42:56.730Z,1508.00
2023-01-30T23:43:56.657Z,1505.00
2023-01-30T23:44:57.171Z,1504.00
2023-01-30T23:45:56.587Z,1503.00
2023-01-30T23:46:56.522Z,1501.00
2023-01-30T23:47:56.470Z,1500.00
2023-01-30T23:48:56.432Z,1499.00
2023-01-30T23:49:56.387Z,1502.00
2023-01-30T23:50:56.321Z,1501.00
2023-01-30T23:51:56.280Z,1500.00
2023-01-30T23:52:56.229Z,1498.00
2023-01-30T23:53:56.175Z,1492.00
2023-01-30T23:54:56.124Z,1490.00
2023-01-30T23:55:56.081Z,1491.00
2023-01-30T23:56:56.023Z,1493.00
2023-01-30T23:57:55.975Z,1493.00
2023-01-30T23:58:55.931Z,1491.00
2023-01-30T23:59:55.875Z,1491.00
